createdAt,value
2018-06-02T00:00:36.218Z,79.44
2018-06-02T00:03:03.703Z,80.25
2018-06-02T00:05:31.097Z,80.56
2018-06-02T00:07:58.610Z,80.74
2018-06-02T00:10:26.022Z,80.87
2018-06-02T00:12:53.434Z,80.83
2018-06-02T00:15:20.837Z,79.87
2018-06-02T00:17:48.317Z,79.88
2018-06-02T00:20:15.773Z,79.66
2018-06-02T00:22:43.254Z,79.07
2018-06-02T00:25:10.649Z,78.50
2018-06-02T00:27:38.073Z,77.94
2018-06-02T00:30:05.483Z,77.90
2018-06-02T00:32:32.893Z,77.97
2018-06-02T00:35:00.686Z,78.42
2018-06-02T00:37:28.088Z,79.90
2018-06-02T00:39:55.484Z,80.13
2018-06-02T00:42:22.920Z,80.90
2018-06-02T00:44:50.382Z,80.27
2018-06-02T00:47:17.798Z,80.60
2018-06-02T00:49:45.214Z,80.47
2018-06-02T00:52:12.605Z,80.87
2018-06-02T00:54:51.850Z,81.00
2018-06-02T00:57:19.255Z,81.17
2018-06-02T00:59:46.761Z,82.49
2018-06-02T01:02:14.170Z,83.99
2018-06-02T01:04:41.565Z,84.16
2018-06-02T01:07:09.054Z,84.05
2018-06-02T01:09:36.499Z,84.03
2018-06-02T01:12:03.893Z,84.05
2018-06-02T01:14:31.293Z,83.93
2018-06-02T01:16:58.706Z,84.29
2018-06-02T01:19:26.110Z,84.14
2018-06-02T01:21:53.564Z,84.06
2018-06-02T01:24:21.024Z,84.14
2018-06-02T01:26:48.544Z,84.46
2018-06-02T01:29:16.045Z,84.26
2018-06-02T01:31:43.498Z,84.61
2018-06-02T01:34:10.919Z,85.85
2018-06-02T01:36:38.313Z,85.21
2018-06-02T01:39:05.760Z,85.28
2018-06-02T01:41:33.213Z,85.27
2018-06-02T01:44:00.613Z,84.39
2018-06-02T01:46:28.055Z,84.52
2018-06-02T01:48:55.448Z,84.46
2018-06-02T01:51:22.866Z,84.59
2018-06-02T01:53:50.278Z,84.43
2018-06-02T01:56:18.679Z,84.42
2018-06-02T01:58:46.085Z,84.08
2018-06-02T02:01:14.102Z,84.02
2018-06-02T02:03:41.518Z,84.00
2018-06-02T02:06:08.929Z,83.58
2018-06-02T02:08:36.354Z,83.79
2018-06-02T02:11:03.830Z,84.09
2018-06-02T02:13:31.247Z,84.76
2018-06-02T02:15:58.725Z,84.63
2018-06-02T02:18:26.418Z,84.46
2018-06-02T02:20:53.985Z,85.38
2018-06-02T02:23:21.397Z,84.60
2018-06-02T02:25:48.796Z,84.73
2018-06-02T02:28:16.204Z,84.71
2018-06-02T02:30:43.607Z,84.51
2018-06-02T02:33:11.064Z,84.12
2018-06-02T02:35:38.466Z,84.60
2018-06-02T02:38:05.958Z,84.48
2018-06-02T02:40:33.509Z,85.33
2018-06-02T02:43:00.909Z,85.15
2018-06-02T02:45:28.338Z,85.54
2018-06-02T02:47:55.743Z,85.16
2018-06-02T02:50:23.144Z,84.63
2018-06-02T02:52:50.604Z,84.64
2018-06-02T02:55:18.024Z,84.13
2018-06-02T02:57:45.518Z,84.21
2018-06-02T03:00:12.917Z,84.09
2018-06-02T03:02:40.328Z,83.82
2018-06-02T03:05:07.737Z,83.42
2018-06-02T03:07:35.152Z,82.90
2018-06-02T03:10:02.596Z,82.52
2018-06-02T03:12:30.007Z,82.38
2018-06-02T03:14:57.406Z,82.10
2018-06-02T03:17:24.881Z,82.26
2018-06-02T03:19:52.355Z,82.53
2018-06-02T03:22:19.744Z,82.83
2018-06-02T03:24:47.144Z,82.46
2018-06-02T03:27:14.584Z,81.94
2018-06-02T03:29:41.981Z,82.20
2018-06-02T03:32:09.401Z,82.18
2018-06-02T03:34:36.857Z,83.13
2018-06-02T03:37:04.256Z,82.44
2018-06-02T03:39:32.625Z,83.30
2018-06-02T03:42:00.049Z,82.36
2018-06-02T03:44:27.525Z,82.64
2018-06-02T03:46:54.973Z,82.35
2018-06-02T03:49:22.418Z,82.51
2018-06-02T03:51:49.828Z,82.41
2018-06-02T03:54:17.226Z,82.33
2018-06-02T03:56:44.654Z,82.06
2018-06-02T03:59:12.067Z,81.76
2018-06-02T04:01:39.477Z,82.47
2018-06-02T04:04:06.964Z,82.81
2018-06-02T04:06:34.357Z,82.63
2018-06-02T04:09:01.794Z,83.21
2018-06-02T04:11:29.192Z,83.49
2018-06-02T04:13:56.601Z,82.94
2018-06-02T04:16:24.038Z,82.48
2018-06-02T04:18:51.496Z,82.20
2018-06-02T04:21:18.911Z,81.91
2018-06-02T04:23:46.409Z,81.81
2018-06-02T04:26:13.861Z,80.80
2018-06-02T04:28:41.319Z,80.48
2018-06-02T04:31:08.720Z,79.98
2018-06-02T04:33:36.155Z,79.54
2018-06-02T04:36:03.628Z,79.06
2018-06-02T04:38:31.030Z,78.80
2018-06-02T04:40:58.451Z,78.91
2018-06-02T04:43:26.450Z,79.07
2018-06-02T04:45:53.869Z,78.87
2018-06-02T04:48:21.460Z,79.06
2018-06-02T04:50:48.846Z,79.40
2018-06-02T04:53:16.282Z,79.33
2018-06-02T04:55:43.689Z,79.60
2018-06-02T04:58:11.113Z,79.33
2018-06-02T05:00:38.509Z,79.16
2018-06-02T05:03:05.917Z,79.48
2018-06-02T05:08:00.022Z,79.76
2018-06-02T05:10:27.418Z,79.46
2018-06-02T05:12:54.826Z,79.34
2018-06-02T05:15:22.228Z,78.94
2018-06-02T05:17:49.646Z,79.83
2018-06-02T05:20:17.040Z,80.21
2018-06-02T05:22:44.485Z,80.51
2018-06-02T05:25:11.869Z,80.57
2018-06-02T05:30:00.461Z,81.85
2018-06-02T05:32:27.855Z,81.25
2018-06-02T05:34:55.257Z,80.77
2018-06-02T05:37:22.662Z,80.07
2018-06-02T05:39:50.184Z,80.15
2018-06-02T05:42:17.625Z,79.89
2018-06-02T05:44:45.051Z,79.87
2018-06-02T05:47:12.536Z,79.72
2018-06-02T05:49:39.929Z,79.77
2018-06-02T05:52:07.358Z,79.88
2018-06-02T05:54:34.874Z,79.90
2018-06-02T05:57:02.261Z,79.79
2018-06-02T05:59:29.666Z,80.61
2018-06-02T06:01:57.125Z,80.46
2018-06-02T06:04:24.533Z,79.91
2018-06-02T06:06:52.009Z,80.00
2018-06-02T06:09:19.440Z,80.32
2018-06-02T06:11:46.850Z,80.40
2018-06-02T06:14:14.318Z,80.37
2018-06-02T06:16:41.725Z,80.91
2018-06-02T06:19:09.169Z,81.82
2018-06-02T06:21:36.577Z,82.00
2018-06-02T06:24:03.994Z,82.77
2018-06-02T06:26:31.441Z,82.39
2018-06-02T06:28:58.849Z,82.67
2018-06-02T06:31:26.381Z,82.62
2018-06-02T06:33:53.785Z,82.42
2018-06-02T06:36:21.189Z,83.01
2018-06-02T06:38:48.625Z,83.65
2018-06-02T06:41:16.049Z,83.16
2018-06-02T06:43:43.459Z,83.16
2018-06-02T06:46:10.910Z,82.12
2018-06-02T06:48:38.350Z,82.76
2018-06-02T06:51:05.744Z,83.53
2018-06-02T06:53:33.265Z,83.41
2018-06-02T06:56:00.661Z,82.92
2018-06-02T06:58:28.198Z,83.78
2018-06-02T07:00:55.585Z,83.99
2018-06-02T07:03:22.981Z,84.05
2018-06-02T07:05:50.482Z,83.66
2018-06-02T07:08:17.877Z,84.22
2018-06-02T07:10:45.281Z,84.70
2018-06-02T07:13:12.714Z,85.46
2018-06-02T07:15:40.239Z,85.74
2018-06-02T07:18:07.640Z,85.37
2018-06-02T07:20:35.093Z,85.59
2018-06-02T07:23:02.516Z,85.18
2018-06-02T07:25:29.929Z,85.33
2018-06-02T07:27:57.328Z,84.78
2018-06-02T07:30:24.825Z,84.78
2018-06-02T07:32:52.221Z,84.88
2018-06-02T07:35:19.665Z,85.12
2018-06-02T07:37:47.061Z,84.72
2018-06-02T07:40:14.544Z,84.36
2018-06-02T07:42:41.999Z,83.19
2018-06-02T07:45:09.402Z,83.47
2018-06-02T07:47:36.844Z,82.81
2018-06-02T07:50:04.296Z,83.04
2018-06-02T07:52:31.673Z,82.71
2018-06-02T07:54:59.093Z,84.18
2018-06-02T07:57:26.525Z,83.56
2018-06-02T07:59:53.925Z,82.90
2018-06-02T08:02:21.337Z,82.59
2018-06-02T08:04:48.746Z,83.43
2018-06-02T08:07:16.149Z,82.70
2018-06-02T08:09:43.586Z,82.39
2018-06-02T08:12:11.026Z,82.72
2018-06-02T08:14:38.429Z,82.10
2018-06-02T08:17:05.896Z,82.34
2018-06-02T08:19:33.341Z,82.57
2018-06-02T08:22:00.749Z,82.85
2018-06-02T08:24:28.158Z,82.16
2018-06-02T08:26:55.562Z,82.66
2018-06-02T08:29:22.981Z,82.57
2018-06-02T08:31:50.377Z,82.21
2018-06-02T08:34:17.776Z,82.22
2018-06-02T08:36:45.260Z,81.87
2018-06-02T08:39:12.673Z,82.24
2018-06-02T08:41:40.086Z,82.90
2018-06-02T08:44:07.537Z,83.10
2018-06-02T08:46:34.989Z,83.44
2018-06-02T08:49:02.408Z,83.71
2018-06-02T08:51:29.827Z,83.54
2018-06-02T08:53:57.333Z,83.78
2018-06-02T08:56:24.812Z,84.34
2018-06-02T08:58:52.241Z,84.09
2018-06-02T09:01:19.705Z,83.58
2018-06-02T09:03:47.101Z,83.03
2018-06-02T09:06:15.194Z,83.46
2018-06-02T09:08:42.623Z,83.50
2018-06-02T09:11:10.138Z,82.48
2018-06-02T09:13:37.552Z,83.65
2018-06-02T09:16:04.970Z,81.59
2018-06-02T09:18:32.366Z,81.59
2018-06-02T09:20:59.788Z,82.31
2018-06-02T09:23:27.190Z,81.61
2018-06-02T09:25:54.609Z,79.54
2018-06-02T09:28:22.115Z,79.91
2018-06-02T09:30:49.572Z,78.80
2018-06-02T09:33:16.957Z,78.11
2018-06-02T09:35:44.384Z,77.71
2018-06-02T09:38:11.788Z,76.03
2018-06-02T09:40:39.192Z,75.86
2018-06-02T09:43:06.590Z,75.94
2018-06-02T09:45:33.997Z,76.44
2018-06-02T09:48:01.445Z,75.40
2018-06-02T09:50:28.858Z,75.40
2018-06-02T09:52:56.267Z,75.69
2018-06-02T09:55:23.686Z,75.69
2018-06-02T09:57:51.179Z,75.44
2018-06-02T10:00:22.540Z,74.90
2018-06-02T10:02:49.981Z,75.08
2018-06-02T10:05:17.413Z,75.76
2018-06-02T10:07:45.114Z,76.73
2018-06-02T10:10:12.517Z,76.12
2018-06-02T10:12:40.043Z,76.07
2018-06-02T10:15:07.473Z,76.09
2018-06-02T10:17:34.928Z,74.83
2018-06-02T10:20:02.398Z,75.60
2018-06-02T10:22:29.849Z,74.95
2018-06-02T10:24:57.253Z,73.80
2018-06-02T10:27:24.658Z,74.05
2018-06-02T10:29:52.109Z,73.65
2018-06-02T10:32:19.578Z,73.70
2018-06-02T10:34:46.997Z,73.22
2018-06-02T10:37:14.391Z,72.49
2018-06-02T10:39:41.877Z,72.76
2018-06-02T10:42:09.292Z,72.84
2018-06-02T10:44:36.718Z,71.83
2018-06-02T10:47:04.109Z,71.29
2018-06-02T10:49:31.512Z,70.17
2018-06-02T10:51:58.929Z,70.03
2018-06-02T10:54:26.347Z,69.54
2018-06-02T10:56:53.750Z,69.56
2018-06-02T10:59:21.151Z,68.53
2018-06-02T11:01:48.643Z,68.52
2018-06-02T11:04:16.014Z,69.27
2018-06-02T11:06:43.448Z,68.78
2018-06-02T11:09:11.262Z,67.95
2018-06-02T11:11:38.700Z,69.68
2018-06-02T11:14:06.215Z,69.90
2018-06-02T11:16:33.617Z,70.77
2018-06-02T11:19:01.032Z,70.11
2018-06-02T11:21:28.535Z,70.50
2018-06-02T11:23:55.961Z,70.56
2018-06-02T11:26:23.376Z,71.34
2018-06-02T11:28:50.806Z,71.76
2018-06-02T11:31:18.216Z,71.50
2018-06-02T11:33:45.608Z,70.47
2018-06-02T11:36:13.078Z,70.52
2018-06-02T11:38:40.510Z,69.40
2018-06-02T11:41:08.018Z,69.58
2018-06-02T11:43:35.558Z,68.92
2018-06-02T11:46:03.021Z,68.61
2018-06-02T11:48:30.423Z,69.11
2018-06-02T11:50:57.825Z,69.49
2018-06-02T11:53:25.221Z,69.33
2018-06-02T11:55:52.637Z,69.03
2018-06-02T11:58:20.064Z,69.94
2018-06-02T12:00:47.480Z,69.36
2018-06-02T12:03:14.886Z,68.71
2018-06-02T12:05:42.353Z,69.79
2018-06-02T12:08:09.780Z,69.40
2018-06-02T12:10:37.289Z,68.87
2018-06-02T12:13:04.687Z,69.53
2018-06-02T12:15:32.093Z,67.99
2018-06-02T12:17:59.514Z,68.59
2018-06-02T12:20:27.025Z,68.22
2018-06-02T12:22:54.431Z,67.01
2018-06-02T12:25:21.833Z,66.98
2018-06-02T12:27:49.228Z,66.25
2018-06-02T12:30:16.718Z,65.49
2018-06-02T12:32:44.201Z,66.28
2018-06-02T12:35:11.601Z,67.54
2018-06-02T12:37:39.010Z,68.42
2018-06-02T12:40:06.414Z,69.42
2018-06-02T12:42:33.958Z,67.86
2018-06-02T12:45:01.361Z,69.04
2018-06-02T12:47:28.759Z,69.00
2018-06-02T12:49:56.190Z,68.94
2018-06-02T12:52:23.601Z,69.63
2018-06-02T12:54:50.996Z,69.21
2018-06-02T12:57:18.472Z,69.63
2018-06-02T12:59:45.916Z,69.75
2018-06-02T13:02:13.509Z,69.92
2018-06-02T13:04:40.901Z,69.70
2018-06-02T13:07:08.389Z,69.26
2018-06-02T13:09:35.832Z,69.64
2018-06-02T13:12:03.433Z,69.88
2018-06-02T13:14:30.885Z,68.94
2018-06-02T13:16:58.330Z,69.08
2018-06-02T13:19:25.778Z,68.80
2018-06-02T13:21:53.273Z,68.79
2018-06-02T13:24:20.939Z,69.91
2018-06-02T13:26:48.337Z,69.22
2018-06-02T13:29:15.770Z,68.98
2018-06-02T13:31:43.218Z,69.48
2018-06-02T13:34:10.613Z,69.29
2018-06-02T13:36:38.027Z,69.40
2018-06-02T13:39:05.417Z,69.42
2018-06-02T13:41:32.830Z,69.21
2018-06-02T13:44:00.270Z,69.74
2018-06-02T13:46:27.679Z,69.86
2018-06-02T13:48:55.073Z,69.21
2018-06-02T13:51:22.657Z,69.14
2018-06-02T13:53:50.027Z,69.05
2018-06-02T13:56:17.432Z,68.86
2018-06-02T13:58:44.900Z,69.92
2018-06-02T14:01:12.377Z,70.04
2018-06-02T14:03:39.777Z,69.67
2018-06-02T14:06:07.176Z,69.51
2018-06-02T14:08:34.568Z,68.88
2018-06-02T14:11:02.023Z,69.58
2018-06-02T14:13:29.441Z,68.89
2018-06-02T14:15:56.866Z,69.37
2018-06-02T14:18:24.367Z,69.26
2018-06-02T14:20:51.822Z,68.36
2018-06-02T14:23:19.239Z,68.45
2018-06-02T14:25:46.702Z,68.60
2018-06-02T14:28:14.100Z,68.90
2018-06-02T14:30:41.612Z,67.92
2018-06-02T14:33:09.011Z,68.79
2018-06-02T14:35:36.434Z,69.03
2018-06-02T14:38:03.889Z,68.95
2018-06-02T14:40:31.330Z,69.02
2018-06-02T14:42:58.734Z,69.21
2018-06-02T14:45:26.134Z,69.65
2018-06-02T14:47:53.550Z,70.04
2018-06-02T14:50:20.961Z,69.63
2018-06-02T14:52:48.366Z,70.08
2018-06-02T14:55:15.839Z,70.09
2018-06-02T14:57:43.236Z,69.85
2018-06-02T15:00:10.670Z,69.59
2018-06-02T15:02:38.093Z,69.80
2018-06-02T15:05:05.545Z,69.86
2018-06-02T15:07:32.993Z,69.69
2018-06-02T15:10:00.506Z,69.58
2018-06-02T15:12:27.962Z,69.62
2018-06-02T15:14:55.377Z,69.84
2018-06-02T15:17:22.837Z,70.18
2018-06-02T15:19:50.232Z,70.09
2018-06-02T15:22:17.644Z,70.04
2018-06-02T15:24:45.054Z,69.70
2018-06-02T15:27:12.451Z,69.24
2018-06-02T15:29:39.916Z,68.99
2018-06-02T15:32:07.426Z,69.71
2018-06-02T15:34:34.932Z,69.60
2018-06-02T15:37:02.336Z,68.99
2018-06-02T15:39:29.882Z,68.87
2018-06-02T15:41:57.289Z,68.65
2018-06-02T15:44:24.697Z,68.81
2018-06-02T15:46:52.112Z,68.52
2018-06-02T15:49:19.642Z,68.00
2018-06-02T15:51:47.178Z,68.01
2018-06-02T15:54:14.593Z,68.31
2018-06-02T15:56:42.018Z,68.46
2018-06-02T15:59:09.453Z,68.63
2018-06-02T16:01:36.861Z,69.07
2018-06-02T16:04:04.266Z,69.17
2018-06-02T16:06:31.772Z,71.33
2018-06-02T16:08:59.172Z,71.40
2018-06-02T16:11:26.584Z,71.91
2018-06-02T16:13:53.989Z,71.57
2018-06-02T16:16:21.425Z,71.50
2018-06-02T16:18:48.916Z,71.73
2018-06-02T16:21:16.374Z,71.72
2018-06-02T16:23:43.837Z,71.67
2018-06-02T16:26:11.253Z,71.53
2018-06-02T16:28:38.745Z,71.73
2018-06-02T16:31:06.162Z,72.44
2018-06-02T16:33:33.609Z,72.49
2018-06-02T16:36:01.022Z,72.59
2018-06-02T16:38:28.477Z,72.91
2018-06-02T16:40:55.885Z,73.42
2018-06-02T16:43:23.289Z,73.23
2018-06-02T16:45:50.681Z,72.61
2018-06-02T16:48:18.124Z,72.78
2018-06-02T16:50:45.584Z,72.58
2018-06-02T16:53:13.031Z,72.08
2018-06-02T16:55:40.472Z,72.06
2018-06-02T16:58:07.878Z,72.34
2018-06-02T17:00:35.276Z,72.67
2018-06-02T17:03:02.718Z,73.07
2018-06-02T17:05:30.213Z,73.06
2018-06-02T17:07:57.649Z,72.91
2018-06-02T17:10:25.114Z,72.92
2018-06-02T17:12:52.539Z,73.02
2018-06-02T17:15:20.039Z,73.47
2018-06-02T17:17:47.445Z,73.36
2018-06-02T17:20:14.959Z,73.17
2018-06-02T17:22:42.361Z,73.38
2018-06-02T17:25:09.854Z,73.10
2018-06-02T17:27:37.337Z,72.83
2018-06-02T17:30:04.769Z,73.09
2018-06-02T17:32:32.170Z,73.06
2018-06-02T17:34:59.596Z,73.67
2018-06-02T17:37:27.012Z,73.60
2018-06-02T17:39:54.408Z,73.49
2018-06-02T17:42:21.864Z,73.12
2018-06-02T17:44:49.262Z,73.17
2018-06-02T17:47:16.664Z,72.85
2018-06-02T17:49:44.065Z,72.99
2018-06-02T17:52:11.533Z,73.25
2018-06-02T17:54:38.918Z,73.41
2018-06-02T17:57:06.340Z,73.01
2018-06-02T17:59:33.725Z,73.44
2018-06-02T18:02:01.144Z,73.05
2018-06-02T18:04:28.896Z,72.64
2018-06-02T18:06:56.320Z,72.33
2018-06-02T18:09:24.069Z,72.92
2018-06-02T18:11:51.545Z,73.31
2018-06-02T18:14:18.999Z,72.99
2018-06-02T18:16:46.397Z,72.26
2018-06-02T18:19:13.800Z,71.72
2018-06-02T18:21:41.198Z,72.12
2018-06-02T18:24:08.601Z,72.31
2018-06-02T18:26:36.002Z,71.88
2018-06-02T18:29:03.415Z,71.75
2018-06-02T18:31:30.808Z,71.67
2018-06-02T18:33:58.227Z,72.18
2018-06-02T18:36:25.640Z,72.14
2018-06-02T18:38:53.075Z,72.84
2018-06-02T18:41:20.491Z,72.92
2018-06-02T18:43:47.890Z,72.76
2018-06-02T18:46:15.294Z,73.52
2018-06-02T18:48:42.701Z,73.50
2018-06-02T18:51:10.139Z,73.89
2018-06-02T18:53:37.575Z,74.22
2018-06-02T18:56:05.067Z,74.61
2018-06-02T18:58:32.485Z,75.37
2018-06-02T19:01:00.009Z,75.52
2018-06-02T19:03:27.433Z,76.53
2018-06-02T19:05:54.832Z,77.24
2018-06-02T19:08:22.246Z,77.65
2018-06-02T19:10:49.657Z,78.16
2018-06-02T19:13:17.060Z,78.30
2018-06-02T19:15:44.475Z,77.48
2018-06-02T19:18:11.921Z,77.79
2018-06-02T19:20:39.318Z,77.34
2018-06-02T19:23:06.743Z,77.03
2018-06-02T19:25:34.160Z,76.67
2018-06-02T19:28:01.614Z,76.49
2018-06-02T19:30:29.039Z,76.36
2018-06-02T19:32:56.744Z,76.08
2018-06-02T19:35:25.080Z,75.95
2018-06-02T19:37:52.450Z,75.50
2018-06-02T19:40:19.840Z,75.60
2018-06-02T19:42:47.352Z,75.83
2018-06-02T19:45:14.750Z,75.54
2018-06-02T19:47:42.301Z,75.41
2018-06-02T19:50:09.682Z,75.17
2018-06-02T19:52:37.114Z,75.44
2018-06-02T19:55:04.518Z,75.43
2018-06-02T19:57:31.951Z,75.40
2018-06-02T19:59:59.378Z,75.40
2018-06-02T20:02:26.818Z,75.37
2018-06-02T20:04:54.290Z,75.13
2018-06-02T20:07:21.721Z,75.24
2018-06-02T20:09:49.169Z,74.95
2018-06-02T20:12:16.643Z,74.33
2018-06-02T20:14:44.079Z,74.02
2018-06-02T20:17:11.466Z,73.78
2018-06-02T20:19:38.861Z,73.53
2018-06-02T20:22:06.470Z,73.34
2018-06-02T20:24:33.838Z,73.70
2018-06-02T20:27:01.279Z,74.00
2018-06-02T20:29:28.677Z,73.55
2018-06-02T20:31:56.077Z,73.59
2018-06-02T20:34:23.537Z,73.58
2018-06-02T20:36:51.030Z,74.02
2018-06-02T20:39:18.468Z,73.89
2018-06-02T20:41:45.873Z,74.11
2018-06-02T20:44:13.270Z,74.06
2018-06-02T20:46:40.722Z,73.94
2018-06-02T20:49:08.173Z,74.22
2018-06-02T20:51:35.656Z,73.88
2018-06-02T20:54:03.056Z,73.87
2018-06-02T20:56:30.452Z,74.06
2018-06-02T20:58:57.866Z,74.27
2018-06-02T21:01:25.293Z,74.12
2018-06-02T21:03:52.717Z,73.69
2018-06-02T21:06:20.202Z,73.81
2018-06-02T21:08:47.642Z,73.74
2018-06-02T21:11:15.109Z,74.42
2018-06-02T21:13:42.595Z,73.89
2018-06-02T21:16:10.012Z,73.87
2018-06-02T21:18:37.434Z,73.70
2018-06-02T21:21:04.862Z,73.54
2018-06-02T21:23:32.283Z,73.20
2018-06-02T21:25:59.740Z,73.48
2018-06-02T21:28:27.139Z,73.96
2018-06-02T21:30:54.537Z,73.98
2018-06-02T21:33:22.009Z,73.79
2018-06-02T21:35:49.410Z,73.38
2018-06-02T21:38:16.811Z,73.22
2018-06-02T21:40:44.206Z,73.26
2018-06-02T21:43:11.721Z,73.33
2018-06-02T21:45:39.125Z,73.33
2018-06-02T21:48:06.635Z,73.09
2018-06-02T21:50:34.037Z,73.10
2018-06-02T21:53:01.553Z,73.36
2018-06-02T21:55:28.980Z,73.35
2018-06-02T21:57:56.377Z,73.33
2018-06-02T22:00:23.783Z,73.72
2018-06-02T22:02:51.189Z,74.07
2018-06-02T22:05:18.683Z,74.08
2018-06-02T22:07:46.103Z,74.40
2018-06-02T22:10:13.503Z,74.88
2018-06-02T22:12:40.905Z,74.89
2018-06-02T22:15:08.371Z,75.27
2018-06-02T22:17:35.824Z,74.86
2018-06-02T22:20:03.292Z,74.96
2018-06-02T22:22:30.677Z,74.83
2018-06-02T22:24:58.086Z,75.28
2018-06-02T22:27:25.489Z,75.02
2018-06-02T22:29:52.908Z,75.15
2018-06-02T22:32:20.365Z,75.35
2018-06-02T22:34:47.765Z,75.83
2018-06-02T22:37:15.173Z,76.41
2018-06-02T22:39:42.642Z,76.26
2018-06-02T22:42:10.061Z,76.17
2018-06-02T22:44:37.469Z,76.06
2018-06-02T22:47:04.869Z,76.48
2018-06-02T22:49:32.291Z,76.72
2018-06-02T22:51:59.681Z,76.67
2018-06-02T22:54:27.107Z,76.54
2018-06-02T22:56:54.493Z,76.48
2018-06-02T22:59:21.912Z,76.76
2018-06-02T23:01:49.337Z,76.57
2018-06-02T23:04:16.801Z,76.70
2018-06-02T23:06:44.215Z,76.37
2018-06-02T23:09:11.622Z,76.10
2018-06-02T23:11:39.037Z,75.98
2018-06-02T23:14:06.464Z,75.83
2018-06-02T23:16:33.864Z,76.08
2018-06-02T23:19:01.269Z,75.57
2018-06-02T23:21:28.673Z,75.23
2018-06-02T23:23:56.184Z,74.89
2018-06-02T23:26:23.614Z,75.22
2018-06-02T23:28:51.065Z,74.98
2018-06-02T23:31:18.490Z,74.27
2018-06-02T23:33:45.877Z,73.76
2018-06-02T23:36:13.297Z,73.43
2018-06-02T23:38:40.790Z,73.31
2018-06-02T23:41:08.256Z,73.39
2018-06-02T23:43:35.647Z,73.52
2018-06-02T23:46:03.153Z,73.17
2018-06-02T23:48:30.566Z,73.69
2018-06-02T23:50:58.037Z,74.15
2018-06-02T23:53:25.438Z,74.42
2018-06-02T23:55:52.853Z,74.45
2018-06-02T23:58:20.266Z,74.90
